KCSQ/CSQ METAR and TAF weather

Enter ICAO airport designator
Station Type Date Time Source
KCSQ METAR 2021/10/20 06:55 UTC NOAA

KCSQ 200655Z AUTO 17007KT 10SM CLR 16/13 A2994 RMK AO2


Station Type Date Time Source
KCSQ Decoded METAR 2021/10/20 06:55 UTC NOAA

Creston, IA, United States (KCSQ) 41-01N 094-22W
Oct 20, 2021 - 02:55 AM EDT / 2021.10.20 0655 UTC
Wind: from the S (170 degrees) at 8 MPH (7 KT):0
Visibility: 10 mile(s):0
Sky conditions: clear
Temperature: 60 F (16 C)
Dew Point: 55 F (13 C)
Relative Humidity: 82%
Pressure (altimeter): 29.94 in. Hg (1013 hPa)
ob: KCSQ 200655Z AUTO 17007KT 10SM CLR 16/13 A2994 RMK AO2
cycle: 7

Station Type Date Time Source
KCSQ TAF UTC NOAA

Error!

Example: see airport list